sensor_id;sensor_type;location;lat;lon;timestamp;P1;durP1;ratioP1;P2;durP2;ratioP2
74523;SDS011;63074;44.696;10.358;2023-04-01T00:00:58;2.38;;;1.27;;
74523;SDS011;63074;44.696;10.358;2023-04-01T00:03:25;4.03;;;1.42;;
74523;SDS011;63074;44.696;10.358;2023-04-01T00:05:55;1.83;;;1.15;;
74523;SDS011;63074;44.696;10.358;2023-04-01T00:08:23;4.00;;;1.85;;
74523;SDS011;63074;44.696;10.358;2023-04-01T00:10:50;2.88;;;2.08;;
74523;SDS011;63074;44.696;10.358;2023-04-01T00:13:16;2.72;;;1.60;;
74523;SDS011;63074;44.696;10.358;2023-04-01T00:15:43;1.63;;;1.27;;
74523;SDS011;63074;44.696;10.358;2023-04-01T00:18:09;4.30;;;1.73;;
74523;SDS011;63074;44.696;10.358;2023-04-01T00:20:36;3.47;;;1.60;;
74523;SDS011;63074;44.696;10.358;2023-04-01T00:23:03;3.22;;;1.40;;
74523;SDS011;63074;44.696;10.358;2023-04-01T00:25:30;2.88;;;1.52;;
74523;SDS011;63074;44.696;10.358;2023-04-01T00:27:56;2.38;;;1.35;;
74523;SDS011;63074;44.696;10.358;2023-04-01T00:30:22;2.83;;;1.63;;
74523;SDS011;63074;44.696;10.358;2023-04-01T00:32:51;3.13;;;1.90;;
74523;SDS011;63074;44.696;10.358;2023-04-01T00:35:18;2.55;;;1.55;;
74523;SDS011;63074;44.696;10.358;2023-04-01T00:37:44;3.15;;;1.30;;
74523;SDS011;63074;44.696;10.358;2023-04-01T00:40:35;2.95;;;1.88;;
74523;SDS011;63074;44.696;10.358;2023-04-01T00:43:00;3.03;;;1.42;;
74523;SDS011;63074;44.696;10.358;2023-04-01T00:45:29;2.25;;;1.77;;
74523;SDS011;63074;44.696;10.358;2023-04-01T00:47:59;3.17;;;1.45;;
74523;SDS011;63074;44.696;10.358;2023-04-01T00:50:29;2.35;;;1.33;;
74523;SDS011;63074;44.696;10.358;2023-04-01T00:52:58;3.42;;;1.30;;
74523;SDS011;63074;44.696;10.358;2023-04-01T00:55:27;3.75;;;1.75;;
74523;SDS011;63074;44.696;10.358;2023-04-01T00:57:57;2.13;;;1.70;;
74523;SDS011;63074;44.696;10.358;2023-04-01T01:00:26;3.22;;;1.73;;
74523;SDS011;63074;44.696;10.358;2023-04-01T01:02:52;3.47;;;2.00;;
74523;SDS011;63074;44.696;10.358;2023-04-01T01:05:20;2.83;;;1.75;;
74523;SDS011;63074;44.696;10.358;2023-04-01T01:08:03;2.42;;;1.42;;
74523;SDS011;63074;44.696;10.358;2023-04-01T01:10:40;2.88;;;1.38;;
74523;SDS011;63074;44.696;10.358;2023-04-01T01:13:21;2.67;;;1.63;;
74523;SDS011;63074;44.696;10.358;2023-04-01T01:16:21;3.20;;;1.63;;
74523;SDS011;63074;44.696;10.358;2023-04-01T01:25:25;3.85;;;2.20;;
74523;SDS011;63074;44.696;10.358;2023-04-01T01:28:22;3.05;;;1.60;;
74523;SDS011;63074;44.696;10.358;2023-04-01T01:31:11;3.72;;;1.98;;
74523;SDS011;63074;44.696;10.358;2023-04-01T01:36:40;3.88;;;2.33;;
74523;SDS011;63074;44.696;10.358;2023-04-01T01:39:10;2.60;;;1.83;;
74523;SDS011;63074;44.696;10.358;2023-04-01T01:41:39;5.45;;;1.60;;
74523;SDS011;63074;44.696;10.358;2023-04-01T01:44:08;3.53;;;2.15;;
74523;SDS011;63074;44.696;10.358;2023-04-01T01:46:37;3.70;;;1.73;;
74523;SDS011;63074;44.696;10.358;2023-04-01T01:49:06;3.30;;;1.95;;
74523;SDS011;63074;44.696;10.358;2023-04-01T01:51:35;3.13;;;1.75;;
74523;SDS011;63074;44.696;10.358;2023-04-01T01:54:01;2.92;;;1.83;;
74523;SDS011;63074;44.696;10.358;2023-04-01T01:56:27;2.40;;;1.77;;
74523;SDS011;63074;44.696;10.358;2023-04-01T01:59:00;3.90;;;1.33;;
74523;SDS011;63074;44.696;10.358;2023-04-01T02:01:33;2.15;;;1.20;;
74523;SDS011;63074;44.696;10.358;2023-04-01T02:04:03;3.67;;;1.52;;
74523;SDS011;63074;44.696;10.358;2023-04-01T02:06:30;2.47;;;1.58;;
74523;SDS011;63074;44.696;10.358;2023-04-01T02:09:02;2.55;;;1.13;;
74523;SDS011;63074;44.696;10.358;2023-04-01T02:11:40;3.05;;;1.63;;
74523;SDS011;63074;44.696;10.358;2023-04-01T02:14:22;3.08;;;1.27;;
74523;SDS011;63074;44.696;10.358;2023-04-01T02:17:02;2.85;;;1.52;;
74523;SDS011;63074;44.696;10.358;2023-04-01T02:19:47;2.83;;;1.63;;
74523;SDS011;63074;44.696;10.358;2023-04-01T02:22:20;3.42;;;1.52;;
74523;SDS011;63074;44.696;10.358;2023-04-01T02:24:49;1.80;;;1.02;;
74523;SDS011;63074;44.696;10.358;2023-04-01T02:27:18;3.90;;;1.42;;
74523;SDS011;63074;44.696;10.358;2023-04-01T02:29:45;3.42;;;1.55;;
74523;SDS011;63074;44.696;10.358;2023-04-01T02:32:11;5.30;;;1.92;;
74523;SDS011;63074;44.696;10.358;2023-04-01T02:34:39;2.53;;;1.85;;
74523;SDS011;63074;44.696;10.358;2023-04-01T02:37:07;4.28;;;1.90;;
74523;SDS011;63074;44.696;10.358;2023-04-01T02:39:33;2.45;;;1.13;;
74523;SDS011;63074;44.696;10.358;2023-04-01T02:41:59;3.33;;;1.60;;
74523;SDS011;63074;44.696;10.358;2023-04-01T02:44:25;3.45;;;2.08;;
74523;SDS011;63074;44.696;10.358;2023-04-01T02:46:52;3.35;;;1.80;;
74523;SDS011;63074;44.696;10.358;2023-04-01T02:49:18;3.05;;;2.00;;
74523;SDS011;63074;44.696;10.358;2023-04-01T02:51:44;5.18;;;1.98;;
74523;SDS011;63074;44.696;10.358;2023-04-01T02:54:10;3.25;;;2.22;;
74523;SDS011;63074;44.696;10.358;2023-04-01T02:56:36;3.22;;;2.38;;
74523;SDS011;63074;44.696;10.358;2023-04-01T02:59:02;6.05;;;2.35;;
74523;SDS011;63074;44.696;10.358;2023-04-01T03:01:29;3.45;;;2.08;;
74523;SDS011;63074;44.696;10.358;2023-04-01T03:03:55;3.17;;;2.40;;
74523;SDS011;63074;44.696;10.358;2023-04-01T03:06:21;3.90;;;2.28;;
74523;SDS011;63074;44.696;10.358;2023-04-01T03:08:47;5.63;;;2.50;;
74523;SDS011;63074;44.696;10.358;2023-04-01T03:11:13;4.53;;;2.35;;
74523;SDS011;63074;44.696;10.358;2023-04-01T03:13:40;2.75;;;2.05;;
74523;SDS011;63074;44.696;10.358;2023-04-01T03:16:06;3.92;;;3.00;;
74523;SDS011;63074;44.696;10.358;2023-04-01T03:18:32;3.92;;;1.98;;
74523;SDS011;63074;44.696;10.358;2023-04-01T03:21:15;4.55;;;2.25;;
74523;SDS011;63074;44.696;10.358;2023-04-01T03:23:43;3.55;;;2.17;;
74523;SDS011;63074;44.696;10.358;2023-04-01T03:26:09;3.08;;;2.58;;
74523;SDS011;63074;44.696;10.358;2023-04-01T03:28:35;3.83;;;2.33;;
74523;SDS011;63074;44.696;10.358;2023-04-01T03:31:01;3.78;;;2.58;;
74523;SDS011;63074;44.696;10.358;2023-04-01T03:33:28;3.58;;;2.17;;
74523;SDS011;63074;44.696;10.358;2023-04-01T03:35:54;3.15;;;2.08;;
74523;SDS011;63074;44.696;10.358;2023-04-01T03:38:20;2.83;;;2.20;;
74523;SDS011;63074;44.696;10.358;2023-04-01T03:40:46;4.13;;;2.20;;
74523;SDS011;63074;44.696;10.358;2023-04-01T03:43:12;2.97;;;2.40;;
74523;SDS011;63074;44.696;10.358;2023-04-01T03:45:45;3.08;;;2.13;;
74523;SDS011;63074;44.696;10.358;2023-04-01T03:48:15;2.83;;;2.20;;
74523;SDS011;63074;44.696;10.358;2023-04-01T03:50:41;3.65;;;2.03;;
74523;SDS011;63074;44.696;10.358;2023-04-01T03:53:08;3.22;;;2.65;;
74523;SDS011;63074;44.696;10.358;2023-04-01T03:55:35;2.83;;;1.73;;
74523;SDS011;63074;44.696;10.358;2023-04-01T03:58:02;3.08;;;1.75;;
74523;SDS011;63074;44.696;10.358;2023-04-01T04:00:29;5.72;;;2.20;;
74523;SDS011;63074;44.696;10.358;2023-04-01T04:02:56;2.38;;;1.77;;
74523;SDS011;63074;44.696;10.358;2023-04-01T04:05:23;3.58;;;2.03;;
74523;SDS011;63074;44.696;10.358;2023-04-01T04:07:50;3.10;;;2.08;;
74523;SDS011;63074;44.696;10.358;2023-04-01T04:10:17;5.20;;;2.55;;
74523;SDS011;63074;44.696;10.358;2023-04-01T04:12:43;3.58;;;2.40;;
74523;SDS011;63074;44.696;10.358;2023-04-01T04:15:10;3.47;;;2.30;;
74523;SDS011;63074;44.696;10.358;2023-04-01T04:17:36;2.67;;;1.98;;
74523;SDS011;63074;44.696;10.358;2023-04-01T04:20:02;4.03;;;2.88;;
74523;SDS011;63074;44.696;10.358;2023-04-01T04:22:29;4.55;;;3.33;;
74523;SDS011;63074;44.696;10.358;2023-04-01T04:24:55;5.22;;;3.13;;
74523;SDS011;63074;44.696;10.358;2023-04-01T04:27:21;4.10;;;2.88;;
74523;SDS011;63074;44.696;10.358;2023-04-01T04:29:47;6.40;;;3.22;;
74523;SDS011;63074;44.696;10.358;2023-04-01T04:32:14;3.45;;;2.60;;
74523;SDS011;63074;44.696;10.358;2023-04-01T04:34:40;5.18;;;2.75;;
74523;SDS011;63074;44.696;10.358;2023-04-01T04:37:06;5.32;;;2.50;;
74523;SDS011;63074;44.696;10.358;2023-04-01T04:39:32;4.65;;;2.45;;
74523;SDS011;63074;44.696;10.358;2023-04-01T04:41:58;3.97;;;2.53;;
74523;SDS011;63074;44.696;10.358;2023-04-01T04:44:25;3.83;;;2.65;;
74523;SDS011;63074;44.696;10.358;2023-04-01T04:46:51;3.65;;;1.95;;
74523;SDS011;63074;44.696;10.358;2023-04-01T04:49:17;3.30;;;2.58;;
74523;SDS011;63074;44.696;10.358;2023-04-01T04:51:43;5.00;;;2.92;;
74523;SDS011;63074;44.696;10.358;2023-04-01T04:54:10;5.13;;;2.83;;
74523;SDS011;63074;44.696;10.358;2023-04-01T04:56:37;3.38;;;2.38;;
74523;SDS011;63074;44.696;10.358;2023-04-01T04:59:03;5.25;;;3.03;;
74523;SDS011;63074;44.696;10.358;2023-04-01T05:01:30;3.38;;;2.40;;
74523;SDS011;63074;44.696;10.358;2023-04-01T05:03:58;4.40;;;2.55;;
74523;SDS011;63074;44.696;10.358;2023-04-01T05:06:25;3.35;;;2.40;;
74523;SDS011;63074;44.696;10.358;2023-04-01T05:08:54;3.78;;;1.85;;
74523;SDS011;63074;44.696;10.358;2023-04-01T05:11:21;3.20;;;2.45;;
74523;SDS011;63074;44.696;10.358;2023-04-01T05:13:48;3.10;;;2.00;;
74523;SDS011;63074;44.696;10.358;2023-04-01T05:16:16;3.33;;;1.77;;
74523;SDS011;63074;44.696;10.358;2023-04-01T05:18:44;4.40;;;1.92;;
74523;SDS011;63074;44.696;10.358;2023-04-01T05:21:10;2.97;;;1.63;;
74523;SDS011;63074;44.696;10.358;2023-04-01T05:23:38;3.65;;;2.33;;
74523;SDS011;63074;44.696;10.358;2023-04-01T05:26:05;4.30;;;1.95;;
74523;SDS011;63074;44.696;10.358;2023-04-01T05:28:32;4.05;;;1.80;;
74523;SDS011;63074;44.696;10.358;2023-04-01T05:30:59;3.75;;;2.05;;
74523;SDS011;63074;44.696;10.358;2023-04-01T05:33:26;4.60;;;2.53;;
74523;SDS011;63074;44.696;10.358;2023-04-01T05:35:53;8.02;;;2.38;;
74523;SDS011;63074;44.696;10.358;2023-04-01T05:38:20;8.15;;;2.65;;
74523;SDS011;63074;44.696;10.358;2023-04-01T05:40:46;8.00;;;1.70;;
74523;SDS011;63074;44.696;10.358;2023-04-01T05:43:12;5.60;;;2.17;;
74523;SDS011;63074;44.696;10.358;2023-04-01T05:45:38;3.70;;;2.15;;
74523;SDS011;63074;44.696;10.358;2023-04-01T05:48:04;3.72;;;1.83;;
74523;SDS011;63074;44.696;10.358;2023-04-01T05:50:31;8.57;;;2.50;;
74523;SDS011;63074;44.696;10.358;2023-04-01T05:52:57;4.40;;;2.22;;
74523;SDS011;63074;44.696;10.358;2023-04-01T05:55:23;3.22;;;1.77;;
74523;SDS011;63074;44.696;10.358;2023-04-01T05:57:49;3.38;;;2.03;;
74523;SDS011;63074;44.696;10.358;2023-04-01T06:00:16;9.80;;;2.63;;
74523;SDS011;63074;44.696;10.358;2023-04-01T06:02:44;3.50;;;2.53;;
74523;SDS011;63074;44.696;10.358;2023-04-01T06:05:22;4.18;;;2.65;;
74523;SDS011;63074;44.696;10.358;2023-04-01T06:07:50;4.53;;;3.08;;
74523;SDS011;63074;44.696;10.358;2023-04-01T06:10:36;6.97;;;3.95;;
74523;SDS011;63074;44.696;10.358;2023-04-01T06:15:53;7.28;;;3.78;;
74523;SDS011;63074;44.696;10.358;2023-04-01T06:18:44;8.70;;;4.15;;
74523;SDS011;63074;44.696;10.358;2023-04-01T06:27:07;6.25;;;4.28;;
74523;SDS011;63074;44.696;10.358;2023-04-01T06:35:35;8.35;;;3.97;;
74523;SDS011;63074;44.696;10.358;2023-04-01T06:54:36;22.55;;;15.45;;
74523;SDS011;63074;44.696;10.358;2023-04-01T06:59:54;8.15;;;4.95;;
74523;SDS011;63074;44.696;10.358;2023-04-01T07:02:32;5.68;;;3.53;;
74523;SDS011;63074;44.696;10.358;2023-04-01T07:05:06;7.97;;;4.88;;
74523;SDS011;63074;44.696;10.358;2023-04-01T07:07:46;11.85;;;9.05;;
74523;SDS011;63074;44.696;10.358;2023-04-01T07:10:35;9.05;;;7.60;;
74523;SDS011;63074;44.696;10.358;2023-04-01T07:13:20;10.13;;;6.03;;
74523;SDS011;63074;44.696;10.358;2023-04-01T07:15:56;7.13;;;4.90;;
74523;SDS011;63074;44.696;10.358;2023-04-01T07:21:56;7.97;;;4.30;;
74523;SDS011;63074;44.696;10.358;2023-04-01T07:24:33;10.07;;;8.80;;
74523;SDS011;63074;44.696;10.358;2023-04-01T07:27:08;9.38;;;4.82;;
74523;SDS011;63074;44.696;10.358;2023-04-01T07:29:36;6.90;;;4.35;;
74523;SDS011;63074;44.696;10.358;2023-04-01T07:37:27;8.65;;;3.72;;
74523;SDS011;63074;44.696;10.358;2023-04-01T07:51:02;6.00;;;3.70;;
74523;SDS011;63074;44.696;10.358;2023-04-01T07:53:46;3.50;;;2.30;;
74523;SDS011;63074;44.696;10.358;2023-04-01T07:56:57;5.22;;;2.83;;
74523;SDS011;63074;44.696;10.358;2023-04-01T08:07:44;0.68;;;0.17;;
74523;SDS011;63074;44.696;10.358;2023-04-01T08:21:47;0.38;;;0.30;;
74523;SDS011;63074;44.696;10.358;2023-04-01T08:24:37;0.32;;;0.32;;
74523;SDS011;63074;44.696;10.358;2023-04-01T08:27:11;0.65;;;0.17;;
74523;SDS011;63074;44.696;10.358;2023-04-01T08:30:01;0.20;;;0.17;;
74523;SDS011;63074;44.696;10.358;2023-04-01T08:32:36;0.98;;;0.38;;
74523;SDS011;63074;44.696;10.358;2023-04-01T08:35:07;0.52;;;0.52;;
74523;SDS011;63074;44.696;10.358;2023-04-01T08:37:38;1.17;;;0.35;;
74523;SDS011;63074;44.696;10.358;2023-04-01T08:52:06;0.95;;;0.17;;
74523;SDS011;63074;44.696;10.358;2023-04-01T08:55:00;0.32;;;0.32;;
74523;SDS011;63074;44.696;10.358;2023-04-01T09:05:35;0.63;;;0.28;;
74523;SDS011;63074;44.696;10.358;2023-04-01T09:08:25;0.35;;;0.35;;
74523;SDS011;63074;44.696;10.358;2023-04-01T09:22:05;0.30;;;0.28;;
74523;SDS011;63074;44.696;10.358;2023-04-01T09:25:15;0.22;;;0.22;;
74523;SDS011;63074;44.696;10.358;2023-04-01T09:41:47;0.43;;;0.17;;
74523;SDS011;63074;44.696;10.358;2023-04-01T09:44:53;0.32;;;0.17;;
74523;SDS011;63074;44.696;10.358;2023-04-01T10:23:45;2.15;;;1.08;;
74523;SDS011;63074;44.696;10.358;2023-04-01T10:44:58;4.78;;;2.05;;
74523;SDS011;63074;44.696;10.358;2023-04-01T10:53:34;3.47;;;1.60;;
74523;SDS011;63074;44.696;10.358;2023-04-01T11:33:14;1.02;;;0.10;;
74523;SDS011;63074;44.696;10.358;2023-04-01T11:35:51;0.35;;;0.35;;
74523;SDS011;63074;44.696;10.358;2023-04-01T11:41:24;0.43;;;0.43;;
74523;SDS011;63074;44.696;10.358;2023-04-01T12:00:35;0.82;;;0.40;;
74523;SDS011;63074;44.696;10.358;2023-04-01T12:11:34;0.38;;;0.35;;
74523;SDS011;63074;44.696;10.358;2023-04-01T12:39:37;0.20;;;0.20;;
74523;SDS011;63074;44.696;10.358;2023-04-01T12:50:39;0.30;;;0.20;;
74523;SDS011;63074;44.696;10.358;2023-04-01T13:15:26;0.30;;;0.30;;
74523;SDS011;63074;44.696;10.358;2023-04-01T13:20:36;0.20;;;0.17;;
74523;SDS011;63074;44.696;10.358;2023-04-01T13:23:20;1.10;;;0.20;;
74523;SDS011;63074;44.696;10.358;2023-04-01T13:28:38;0.38;;;0.38;;
74523;SDS011;63074;44.696;10.358;2023-04-01T13:34:47;0.40;;;0.17;;
74523;SDS011;63074;44.696;10.358;2023-04-01T13:39:41;0.32;;;0.32;;
74523;SDS011;63074;44.696;10.358;2023-04-01T13:59:11;0.63;;;0.35;;
74523;SDS011;63074;44.696;10.358;2023-04-01T14:07:49;0.82;;;0.28;;
74523;SDS011;63074;44.696;10.358;2023-04-01T14:34:59;1.52;;;0.60;;
74523;SDS011;63074;44.696;10.358;2023-04-01T14:49:30;0.25;;;0.10;;
74523;SDS011;63074;44.696;10.358;2023-04-01T14:52:23;0.35;;;0.28;;
74523;SDS011;63074;44.696;10.358;2023-04-01T14:54:53;0.10;;;0.08;;
74523;SDS011;63074;44.696;10.358;2023-04-01T14:57:28;0.50;;;0.17;;
74523;SDS011;63074;44.696;10.358;2023-04-01T15:02:51;0.95;;;0.15;;
74523;SDS011;63074;44.696;10.358;2023-04-01T15:10:59;1.05;;;0.30;;
74523;SDS011;63074;44.696;10.358;2023-04-01T15:13:57;0.32;;;0.25;;
74523;SDS011;63074;44.696;10.358;2023-04-01T15:38:27;0.20;;;0.20;;
74523;SDS011;63074;44.696;10.358;2023-04-01T15:43:49;1.63;;;0.25;;
74523;SDS011;63074;44.696;10.358;2023-04-01T15:46:26;0.60;;;0.20;;
74523;SDS011;63074;44.696;10.358;2023-04-01T15:49:09;1.83;;;0.52;;
74523;SDS011;63074;44.696;10.358;2023-04-01T15:52:06;0.45;;;0.43;;
74523;SDS011;63074;44.696;10.358;2023-04-01T16:06:07;1.27;;;0.25;;
74523;SDS011;63074;44.696;10.358;2023-04-01T16:14:36;0.80;;;0.55;;
74523;SDS011;63074;44.696;10.358;2023-04-01T16:20:14;0.38;;;0.35;;
74523;SDS011;63074;44.696;10.358;2023-04-01T16:22:56;0.55;;;0.32;;
74523;SDS011;63074;44.696;10.358;2023-04-01T16:25:44;0.38;;;0.17;;
74523;SDS011;63074;44.696;10.358;2023-04-01T16:28:42;1.95;;;0.30;;
74523;SDS011;63074;44.696;10.358;2023-04-01T16:34:10;0.30;;;0.13;;
74523;SDS011;63074;44.696;10.358;2023-04-01T16:36:45;1.00;;;0.20;;
74523;SDS011;63074;44.696;10.358;2023-04-01T16:42:26;0.85;;;0.30;;
74523;SDS011;63074;44.696;10.358;2023-04-01T16:46:08;1.33;;;0.28;;
74523;SDS011;63074;44.696;10.358;2023-04-01T16:48:34;0.43;;;0.38;;
74523;SDS011;63074;44.696;10.358;2023-04-01T16:51:15;0.60;;;0.52;;
74523;SDS011;63074;44.696;10.358;2023-04-01T16:53:47;0.45;;;0.30;;
74523;SDS011;63074;44.696;10.358;2023-04-01T16:56:39;0.63;;;0.40;;
74523;SDS011;63074;44.696;10.358;2023-04-01T17:09:55;2.40;;;0.55;;
74523;SDS011;63074;44.696;10.358;2023-04-01T17:12:31;1.00;;;0.68;;
74523;SDS011;63074;44.696;10.358;2023-04-01T17:20:40;1.20;;;0.57;;
74523;SDS011;63074;44.696;10.358;2023-04-01T17:32:25;3.38;;;1.45;;
74523;SDS011;63074;44.696;10.358;2023-04-01T18:05:59;1.83;;;0.77;;
74523;SDS011;63074;44.696;10.358;2023-04-01T18:09:01;1.20;;;0.47;;
74523;SDS011;63074;44.696;10.358;2023-04-01T18:25:20;1.60;;;0.77;;
74523;SDS011;63074;44.696;10.358;2023-04-01T18:28:11;2.35;;;0.93;;
74523;SDS011;63074;44.696;10.358;2023-04-01T18:30:39;2.00;;;0.70;;
74523;SDS011;63074;44.696;10.358;2023-04-01T18:33:19;2.78;;;1.13;;
74523;SDS011;63074;44.696;10.358;2023-04-01T18:36:08;2.03;;;1.00;;
74523;SDS011;63074;44.696;10.358;2023-04-01T18:38:45;3.03;;;0.90;;
74523;SDS011;63074;44.696;10.358;2023-04-01T18:41:25;1.85;;;0.60;;
74523;SDS011;63074;44.696;10.358;2023-04-01T18:44:24;2.88;;;0.50;;
74523;SDS011;63074;44.696;10.358;2023-04-01T18:49:57;3.22;;;0.93;;
74523;SDS011;63074;44.696;10.358;2023-04-01T18:52:43;2.83;;;0.80;;
74523;SDS011;63074;44.696;10.358;2023-04-01T18:55:18;3.50;;;0.52;;
74523;SDS011;63074;44.696;10.358;2023-04-01T18:57:54;2.40;;;0.70;;
74523;SDS011;63074;44.696;10.358;2023-04-01T19:06:32;2.28;;;0.95;;
74523;SDS011;63074;44.696;10.358;2023-04-01T19:09:21;2.03;;;0.82;;
74523;SDS011;63074;44.696;10.358;2023-04-01T19:22:20;5.18;;;1.25;;
74523;SDS011;63074;44.696;10.358;2023-04-01T19:27:50;2.90;;;1.15;;
74523;SDS011;63074;44.696;10.358;2023-04-01T19:30:39;4.80;;;0.85;;
74523;SDS011;63074;44.696;10.358;2023-04-01T19:43:50;3.00;;;0.82;;
74523;SDS011;63074;44.696;10.358;2023-04-01T19:46:33;2.28;;;0.57;;
74523;SDS011;63074;44.696;10.358;2023-04-01T19:59:40;2.42;;;0.95;;
74523;SDS011;63074;44.696;10.358;2023-04-01T20:05:55;2.22;;;1.05;;
74523;SDS011;63074;44.696;10.358;2023-04-01T20:11:04;2.53;;;0.57;;
74523;SDS011;63074;44.696;10.358;2023-04-01T20:19:25;3.33;;;0.65;;
74523;SDS011;63074;44.696;10.358;2023-04-01T20:21:56;3.28;;;1.42;;
74523;SDS011;63074;44.696;10.358;2023-04-01T20:24:43;2.25;;;0.90;;
74523;SDS011;63074;44.696;10.358;2023-04-01T20:29:58;4.47;;;4.07;;
74523;SDS011;63074;44.696;10.358;2023-04-01T20:32:45;1.63;;;1.48;;
74523;SDS011;63074;44.696;10.358;2023-04-01T20:44:03;3.75;;;0.95;;
74523;SDS011;63074;44.696;10.358;2023-04-01T20:52:14;2.75;;;1.25;;
74523;SDS011;63074;44.696;10.358;2023-04-01T20:55:01;2.30;;;1.08;;
74523;SDS011;63074;44.696;10.358;2023-04-01T21:03:20;3.83;;;1.20;;
74523;SDS011;63074;44.696;10.358;2023-04-01T21:09:03;3.03;;;1.00;;
74523;SDS011;63074;44.696;10.358;2023-04-01T21:14:43;4.03;;;1.23;;
74523;SDS011;63074;44.696;10.358;2023-04-01T21:20:12;2.78;;;0.77;;
74523;SDS011;63074;44.696;10.358;2023-04-01T21:23:09;2.67;;;0.85;;
74523;SDS011;63074;44.696;10.358;2023-04-01T21:31:21;4.13;;;1.05;;
74523;SDS011;63074;44.696;10.358;2023-04-01T21:34:07;3.00;;;0.73;;
74523;SDS011;63074;44.696;10.358;2023-04-01T21:50:27;1.17;;;0.47;;
74523;SDS011;63074;44.696;10.358;2023-04-01T21:56:15;2.85;;;0.65;;
74523;SDS011;63074;44.696;10.358;2023-04-01T22:01:53;1.88;;;0.45;;
74523;SDS011;63074;44.696;10.358;2023-04-01T22:12:41;3.70;;;0.52;;
74523;SDS011;63074;44.696;10.358;2023-04-01T22:15:11;1.50;;;0.70;;
74523;SDS011;63074;44.696;10.358;2023-04-01T22:17:49;2.17;;;0.63;;
74523;SDS011;63074;44.696;10.358;2023-04-01T22:20:30;2.20;;;0.47;;
74523;SDS011;63074;44.696;10.358;2023-04-01T22:26:19;3.85;;;0.47;;
74523;SDS011;63074;44.696;10.358;2023-04-01T22:29:05;2.03;;;0.50;;
74523;SDS011;63074;44.696;10.358;2023-04-01T22:34:14;1.90;;;0.50;;
74523;SDS011;63074;44.696;10.358;2023-04-01T22:37:03;2.67;;;1.17;;
74523;SDS011;63074;44.696;10.358;2023-04-01T22:39:54;1.77;;;0.63;;
74523;SDS011;63074;44.696;10.358;2023-04-01T22:42:39;1.45;;;0.57;;
74523;SDS011;63074;44.696;10.358;2023-04-01T22:50:43;2.85;;;0.55;;
74523;SDS011;63074;44.696;10.358;2023-04-01T22:56:11;1.17;;;0.82;;
74523;SDS011;63074;44.696;10.358;2023-04-01T22:58:54;2.30;;;0.45;;
74523;SDS011;63074;44.696;10.358;2023-04-01T23:01:29;1.70;;;0.60;;
74523;SDS011;63074;44.696;10.358;2023-04-01T23:03:59;2.33;;;0.65;;
74523;SDS011;63074;44.696;10.358;2023-04-01T23:06:32;2.45;;;0.93;;
74523;SDS011;63074;44.696;10.358;2023-04-01T23:11:44;2.33;;;0.75;;
74523;SDS011;63074;44.696;10.358;2023-04-01T23:19:48;1.75;;;0.40;;
74523;SDS011;63074;44.696;10.358;2023-04-01T23:28:42;2.55;;;0.43;;
74523;SDS011;63074;44.696;10.358;2023-04-01T23:36:43;1.88;;;0.55;;
74523;SDS011;63074;44.696;10.358;2023-04-01T23:41:47;3.00;;;0.75;;
74523;SDS011;63074;44.696;10.358;2023-04-01T23:46:44;2.70;;;0.45;;
74523;SDS011;63074;44.696;10.358;2023-04-01T23:49:23;2.17;;;0.93;;
74523;SDS011;63074;44.696;10.358;2023-04-01T23:51:58;2.70;;;0.73;;
74523;SDS011;63074;44.696;10.358;2023-04-01T23:54:30;2.75;;;0.95;;
74523;SDS011;63074;44.696;10.358;2023-04-01T23:56:59;5.10;;;0.75;;
74523;SDS011;63074;44.696;10.358;2023-04-01T23:59:30;1.73;;;0.70;;
